createdAt,value
2023-10-23T00:02:10.142Z,97807.89
2023-10-23T00:04:38.668Z,97806.09
2023-10-23T00:07:07.002Z,97805.95
2023-10-23T00:09:35.130Z,97812.52
2023-10-23T00:12:03.656Z,97813.59
2023-10-23T00:14:31.661Z,97815.52
2023-10-23T00:16:59.667Z,97815.48
2023-10-23T00:19:28.235Z,97810.56
2023-10-23T00:21:56.297Z,97812.00
2023-10-23T00:24:24.455Z,97816.81
2023-10-23T00:26:52.552Z,97816.56
2023-10-23T00:29:20.631Z,97811.22
2023-10-23T00:31:48.679Z,97810.45
2023-10-23T00:34:16.850Z,97806.91
2023-10-23T00:36:46.160Z,97802.89
2023-10-23T00:39:15.390Z,97802.75
2023-10-23T00:41:43.888Z,97804.09
2023-10-23T00:44:12.028Z,97799.94
2023-10-23T00:46:40.383Z,97806.79
2023-10-23T00:49:09.541Z,97821.14
2023-10-23T00:51:38.080Z,97828.69
2023-10-23T00:54:07.370Z,97827.11
2023-10-23T00:56:35.980Z,97821.19
2023-10-23T00:59:04.011Z,97827.26
2023-10-23T01:01:34.468Z,97829.24
2023-10-23T01:04:04.951Z,97830.60
2023-10-23T01:06:33.224Z,97829.23
2023-10-23T01:09:01.362Z,97830.65
2023-10-23T01:11:29.506Z,97836.98
2023-10-23T01:13:58.555Z,97838.47
2023-10-23T01:16:26.754Z,97833.39
2023-10-23T01:18:54.923Z,97838.48
2023-10-23T01:21:23.078Z,97836.02
2023-10-23T01:23:52.885Z,97832.25
2023-10-23T01:26:20.945Z,97830.58
2023-10-23T01:28:48.944Z,97830.61
2023-10-23T01:31:17.909Z,97825.91
2023-10-23T01:33:46.904Z,97829.17
2023-10-23T01:36:15.206Z,97829.80
2023-10-23T01:38:43.958Z,97832.67
2023-10-23T01:41:12.256Z,97834.29
2023-10-23T01:43:40.321Z,97841.90
2023-10-23T01:46:08.358Z,97835.21
2023-10-23T01:48:36.412Z,97837.42
2023-10-23T01:51:04.574Z,97837.23
2023-10-23T01:53:32.726Z,97842.39
2023-10-23T01:56:05.530Z,97844.58
2023-10-23T01:58:33.505Z,97843.16
2023-10-23T02:01:01.720Z,97845.49
2023-10-23T02:03:31.382Z,97844.05
2023-10-23T02:05:59.673Z,97849.99
2023-10-23T02:08:27.714Z,97846.95
2023-10-23T02:10:55.783Z,97849.05
2023-10-23T02:13:23.818Z,97849.79
2023-10-23T02:15:51.928Z,97851.91
2023-10-23T02:18:20.166Z,97854.27
2023-10-23T02:20:48.266Z,97859.11
2023-10-23T02:23:19.093Z,97858.61
2023-10-23T02:25:47.632Z,97859.19
2023-10-23T02:28:15.769Z,97858.88
2023-10-23T02:30:43.871Z,97861.44
2023-10-23T02:33:12.207Z,97861.92
2023-10-23T02:35:40.184Z,97864.94
2023-10-23T02:38:08.261Z,97866.11
2023-10-23T02:40:36.711Z,97864.20
2023-10-23T02:43:04.692Z,97867.13
2023-10-23T02:45:36.197Z,97869.29
2023-10-23T02:48:05.468Z,97868.65
2023-10-23T02:50:34.239Z,97870.52
2023-10-23T02:53:02.325Z,97871.31
2023-10-23T02:55:30.666Z,97877.36
2023-10-23T02:58:00.659Z,97878.99
2023-10-23T03:00:28.853Z,97880.37
2023-10-23T03:02:56.976Z,97880.20
2023-10-23T03:05:25.232Z,97880.87
2023-10-23T03:07:53.196Z,97887.27
2023-10-23T03:10:21.259Z,97891.46
2023-10-23T03:12:49.381Z,97890.79
2023-10-23T03:15:17.690Z,97893.56
2023-10-23T03:17:45.895Z,97892.68
2023-10-23T03:20:14.020Z,97896.41
2023-10-23T03:22:42.037Z,97895.58
2023-10-23T03:25:10.393Z,97896.48
2023-10-23T03:27:38.526Z,97898.58
2023-10-23T03:30:09.465Z,97900.73
2023-10-23T03:32:37.460Z,97901.59
2023-10-23T03:35:06.047Z,97903.55
2023-10-23T03:37:34.038Z,97903.96
2023-10-23T03:40:02.127Z,97903.23
2023-10-23T03:42:30.334Z,97900.89
2023-10-23T03:44:58.405Z,97902.70
2023-10-23T03:47:26.473Z,97902.27
2023-10-23T03:49:54.651Z,97905.84
2023-10-23T03:52:22.831Z,97910.64
2023-10-23T03:54:50.905Z,97909.00
2023-10-23T03:57:19.266Z,97912.80
2023-10-23T03:59:47.345Z,97916.27
2023-10-23T04:02:15.308Z,97920.61
2023-10-23T04:04:43.450Z,97920.89
2023-10-23T04:07:11.623Z,97924.65
2023-10-23T04:09:39.990Z,97925.10
2023-10-23T04:12:08.590Z,97923.80
2023-10-23T04:14:36.766Z,97926.30
2023-10-23T04:17:05.537Z,97929.10
2023-10-23T04:19:33.657Z,97930.31
2023-10-23T04:22:01.680Z,97932.23
2023-10-23T04:24:31.132Z,97931.68
2023-10-23T04:26:59.194Z,97941.73
2023-10-23T04:29:27.150Z,97946.58
2023-10-23T04:31:55.179Z,97949.74
2023-10-23T04:34:23.257Z,97949.59
2023-10-23T04:36:51.367Z,97945.90
2023-10-23T04:39:19.436Z,97943.52
2023-10-23T04:41:47.408Z,97943.24
2023-10-23T04:44:16.063Z,97943.87
2023-10-23T04:46:47.419Z,97944.31
2023-10-23T04:49:15.599Z,97944.64
2023-10-23T04:51:43.752Z,97956.96
2023-10-23T04:54:12.024Z,97960.69
2023-10-23T04:56:40.789Z,97960.94
2023-10-23T04:59:09.151Z,97965.81
2023-10-23T05:01:37.273Z,97967.86
2023-10-23T05:04:05.711Z,97971.42
2023-10-23T05:06:33.982Z,97973.41
2023-10-23T05:09:02.072Z,97976.36
2023-10-23T05:11:31.360Z,97975.65
2023-10-23T05:14:00.020Z,97978.99
2023-10-23T05:16:28.353Z,97986.17
2023-10-23T05:18:56.526Z,97988.15
2023-10-23T05:21:24.572Z,97993.35
2023-10-23T05:23:52.736Z,98000.35
2023-10-23T05:26:21.400Z,98000.38
2023-10-23T05:28:52.761Z,98005.33
2023-10-23T05:31:21.358Z,98007.05
2023-10-23T05:33:50.630Z,98008.10
2023-10-23T05:36:18.793Z,98010.41
2023-10-23T05:38:46.923Z,98012.11
2023-10-23T05:41:15.368Z,98015.06
2023-10-23T05:43:45.333Z,98016.72
2023-10-23T05:46:13.653Z,98024.21
2023-10-23T05:48:42.108Z,98032.04
2023-10-23T05:51:10.240Z,98030.98
2023-10-23T05:53:38.313Z,98030.84
2023-10-23T05:56:07.304Z,98036.62
2023-10-23T05:58:36.671Z,98033.73
2023-10-23T06:01:06.550Z,98032.90
2023-10-23T06:03:35.527Z,98037.62
2023-10-23T06:06:04.928Z,98037.75
2023-10-23T06:08:33.137Z,98036.23
2023-10-23T06:11:01.981Z,98042.06
2023-10-23T06:13:30.104Z,98046.16
2023-10-23T06:16:04.326Z,98044.78
2023-10-23T06:18:33.632Z,98040.00
2023-10-23T06:21:04.900Z,98043.13
2023-10-23T06:23:38.264Z,98040.63
2023-10-23T06:26:07.120Z,98045.21
2023-10-23T06:28:35.624Z,98050.48
2023-10-23T06:31:06.634Z,98050.95
2023-10-23T06:33:36.371Z,98053.98
2023-10-23T06:36:09.332Z,98057.52
2023-10-23T06:38:37.922Z,98056.02
2023-10-23T06:41:06.847Z,98057.05
2023-10-23T06:43:35.721Z,98059.90
2023-10-23T06:46:07.586Z,98062.61
2023-10-23T06:48:35.932Z,98066.27
2023-10-23T06:51:05.316Z,98069.95
2023-10-23T06:53:33.646Z,98074.35
2023-10-23T06:56:02.360Z,98076.58
2023-10-23T06:58:30.422Z,98078.77
2023-10-23T07:01:05.302Z,98079.79
2023-10-23T07:03:33.583Z,98077.80
2023-10-23T07:06:09.013Z,98075.65
2023-10-23T07:08:40.345Z,98078.70
2023-10-23T07:11:19.305Z,98082.77
2023-10-23T07:13:47.380Z,98088.77
2023-10-23T07:16:16.436Z,98090.02
2023-10-23T07:18:45.088Z,98088.64
2023-10-23T07:21:15.998Z,98088.52
2023-10-23T07:23:44.514Z,98089.77
2023-10-23T07:26:14.300Z,98092.15
2023-10-23T07:28:42.708Z,98093.82
2023-10-23T07:31:12.047Z,98096.92
2023-10-23T07:33:40.774Z,98095.45
2023-10-23T07:36:13.741Z,98094.73
2023-10-23T07:38:43.643Z,98097.15
2023-10-23T07:41:12.891Z,98101.81
2023-10-23T07:43:41.102Z,98100.25
2023-10-23T07:46:16.377Z,98094.91
2023-10-23T07:48:46.108Z,98091.77
2023-10-23T07:51:14.830Z,98090.30
2023-10-23T07:53:43.085Z,98088.59
2023-10-23T07:56:14.068Z,98087.70
2023-10-23T07:58:42.818Z,98082.05
2023-10-23T08:01:14.779Z,98080.56
2023-10-23T08:03:43.361Z,98081.87
2023-10-23T08:06:12.601Z,98085.50
2023-10-23T08:08:41.979Z,98084.31
2023-10-23T08:11:11.290Z,98084.58
2023-10-23T08:13:39.809Z,98087.34
2023-10-23T08:16:08.488Z,98087.39
2023-10-23T08:18:40.887Z,98088.15
2023-10-23T08:21:14.151Z,98081.73
2023-10-23T08:23:43.617Z,98080.23
2023-10-23T08:26:11.635Z,98090.60
2023-10-23T08:28:55.055Z,98091.91
2023-10-23T08:31:38.323Z,98089.54
2023-10-23T08:34:08.813Z,98086.20
2023-10-23T08:36:37.582Z,98085.55
2023-10-23T08:39:06.560Z,98086.09
2023-10-23T08:41:35.836Z,98086.64
2023-10-23T08:44:04.415Z,98084.90
2023-10-23T08:46:34.311Z,98083.58
2023-10-23T08:49:03.613Z,98079.10
2023-10-23T08:51:34.591Z,98083.59
2023-10-23T08:54:10.850Z,98083.19
2023-10-23T08:56:44.038Z,98082.14
2023-10-23T08:59:12.933Z,98083.04
2023-10-23T09:01:43.657Z,98084.68
2023-10-23T09:04:13.195Z,98085.45
2023-10-23T09:06:43.765Z,98081.59
2023-10-23T09:09:13.099Z,98082.77
2023-10-23T09:11:51.863Z,98079.56
2023-10-23T09:14:25.037Z,98069.91
2023-10-23T09:16:54.964Z,98067.89
2023-10-23T09:19:40.351Z,98066.75
2023-10-23T09:22:09.584Z,98057.29
2023-10-23T09:24:38.529Z,98054.19
2023-10-23T09:27:06.871Z,98053.83
2023-10-23T09:29:36.421Z,98048.10
2023-10-23T09:32:06.519Z,98051.77
2023-10-23T09:34:40.434Z,98050.36
2023-10-23T09:37:08.950Z,98046.80
2023-10-23T09:39:39.479Z,98039.12
2023-10-23T09:42:08.745Z,98039.40
2023-10-23T09:44:38.366Z,98035.87
2023-10-23T09:47:07.227Z,98030.17
2023-10-23T09:49:35.620Z,98029.30
2023-10-23T09:52:08.398Z,98024.69
2023-10-23T09:54:39.979Z,98018.90
2023-10-23T09:57:09.100Z,98011.58
2023-10-23T09:59:43.980Z,98006.61
2023-10-23T10:02:14.815Z,98005.64
2023-10-23T10:04:52.276Z,98001.01
2023-10-23T10:07:26.496Z,97995.21
2023-10-23T10:09:55.608Z,97990.43
2023-10-23T10:12:26.124Z,97990.12
2023-10-23T10:14:57.456Z,97986.64
2023-10-23T10:17:26.537Z,97984.44
2023-10-23T10:19:54.992Z,97983.84
2023-10-23T10:22:30.648Z,97978.01
2023-10-23T10:24:59.518Z,97971.11
2023-10-23T10:27:28.641Z,97971.40
2023-10-23T10:29:56.936Z,97967.55
2023-10-23T10:32:25.185Z,97973.68
2023-10-23T10:34:56.425Z,97975.23
2023-10-23T10:37:27.908Z,97972.42
2023-10-23T10:39:56.108Z,97967.89
2023-10-23T10:42:25.050Z,97970.17
2023-10-23T10:44:58.170Z,97970.11
2023-10-23T10:47:35.470Z,97961.78
2023-10-23T10:50:05.000Z,97959.02
2023-10-23T10:52:37.526Z,97957.70
2023-10-23T10:55:06.204Z,97952.09
2023-10-23T10:57:35.374Z,97950.25
2023-10-23T11:00:04.619Z,97946.13
2023-10-23T11:02:33.036Z,97937.23
2023-10-23T11:05:07.488Z,97936.36
2023-10-23T11:07:35.522Z,97940.82
2023-10-23T11:10:05.120Z,97938.97
2023-10-23T11:12:33.700Z,97937.31
2023-10-23T11:15:01.823Z,97937.88
2023-10-23T11:17:30.171Z,97935.73
2023-10-23T11:19:59.890Z,97928.85
2023-10-23T11:22:28.095Z,97925.73
2023-10-23T11:24:56.571Z,97920.12
2023-10-23T11:27:24.723Z,97921.59
2023-10-23T11:29:53.306Z,97919.73
2023-10-23T11:32:21.308Z,97920.27
2023-10-23T11:34:49.593Z,97922.80
2023-10-23T11:37:19.273Z,97923.23
2023-10-23T11:39:48.574Z,97923.85
2023-10-23T11:42:17.376Z,97925.84
2023-10-23T11:44:47.309Z,97919.70
2023-10-23T11:47:18.087Z,97919.31
2023-10-23T11:49:50.279Z,97924.32
2023-10-23T11:52:18.353Z,97923.77
2023-10-23T11:54:46.552Z,97922.24
2023-10-23T11:57:18.037Z,97925.94
2023-10-23T11:59:48.164Z,97926.38
2023-10-23T12:02:16.795Z,97927.29
2023-10-23T12:04:45.052Z,97927.75
2023-10-23T12:07:13.765Z,97924.52
2023-10-23T12:09:41.903Z,97925.66
2023-10-23T12:12:10.257Z,97927.77
2023-10-23T12:14:39.903Z,97928.07
2023-10-23T12:17:09.801Z,97927.25
2023-10-23T12:19:38.246Z,97919.56
2023-10-23T12:22:06.831Z,97910.84
2023-10-23T12:24:35.098Z,97909.70
2023-10-23T12:27:03.263Z,97909.30
2023-10-23T12:29:31.437Z,97897.61
2023-10-23T12:32:02.229Z,97901.47
2023-10-23T12:34:32.528Z,97903.02
2023-10-23T12:37:01.073Z,97901.05
2023-10-23T12:39:29.423Z,97896.75
2023-10-23T12:41:57.989Z,97901.61
2023-10-23T12:44:26.880Z,97902.50
2023-10-23T12:46:55.092Z,97908.74
2023-10-23T12:49:23.464Z,97905.89
2023-10-23T12:51:51.480Z,97908.10
2023-10-23T12:54:19.500Z,97920.96
2023-10-23T12:56:47.628Z,97932.85
2023-10-23T12:59:15.580Z,97926.91
2023-10-23T13:01:43.801Z,97919.80
2023-10-23T13:04:11.888Z,97915.05
2023-10-23T13:06:40.228Z,97912.21
2023-10-23T13:09:08.543Z,97901.25
2023-10-23T13:11:36.781Z,97899.01
2023-10-23T13:14:05.977Z,97900.61
2023-10-23T13:16:34.202Z,97898.20
2023-10-23T13:19:03.247Z,97900.80
2023-10-23T13:21:34.838Z,97901.66
2023-10-23T13:24:06.154Z,97900.34
2023-10-23T13:26:34.873Z,97900.63
2023-10-23T13:29:02.922Z,97898.09
2023-10-23T13:31:31.410Z,97892.73
2023-10-23T13:33:59.604Z,97888.41
2023-10-23T13:36:28.020Z,97893.48
2023-10-23T13:38:56.506Z,97899.70
2023-10-23T13:41:24.518Z,97900.40
2023-10-23T13:43:52.614Z,97896.26
2023-10-23T13:46:20.864Z,97893.54
2023-10-23T13:48:49.284Z,97890.94
2023-10-23T13:51:17.374Z,97897.77
2023-10-23T13:53:45.769Z,97900.70
2023-10-23T13:56:13.788Z,97903.99
2023-10-23T13:58:41.990Z,97907.19
2023-10-23T14:01:10.400Z,97907.03
2023-10-23T14:03:39.177Z,97904.38
2023-10-23T14:06:09.034Z,97901.60
2023-10-23T14:09:40.257Z,97900.66
2023-10-23T14:11:57.868Z,97899.71
2023-10-23T14:14:14.741Z,97898.42
2023-10-23T14:16:42.861Z,97899.62
2023-10-23T14:19:14.124Z,97899.70
2023-10-23T14:21:44.603Z,97896.48
2023-10-23T14:24:14.037Z,97897.95
2023-10-23T14:26:42.535Z,97897.01
2023-10-23T14:29:10.772Z,97897.23
2023-10-23T14:31:38.911Z,97895.58
2023-10-23T14:34:07.137Z,97891.92
2023-10-23T14:36:35.258Z,97897.81
2023-10-23T14:39:03.456Z,97899.14
2023-10-23T14:41:31.608Z,97896.77
2023-10-23T14:44:00.748Z,97897.98
2023-10-23T14:46:29.073Z,97900.67
2023-10-23T14:48:57.219Z,97899.48
2023-10-23T14:51:25.574Z,97900.66
2023-10-23T14:53:53.602Z,97900.63
2023-10-23T14:56:21.701Z,97902.71
2023-10-23T14:58:49.833Z,97903.50
2023-10-23T15:01:18.063Z,97898.80
2023-10-23T15:03:46.397Z,97897.48
2023-10-23T15:06:14.741Z,97898.59
2023-10-23T15:08:43.818Z,97903.10
2023-10-23T15:11:15.695Z,97901.56
2023-10-23T15:13:43.747Z,97903.25
2023-10-23T15:16:11.957Z,97908.66
2023-10-23T15:18:39.960Z,97906.13
2023-10-23T15:21:08.538Z,97907.23
2023-10-23T15:23:36.817Z,97903.75
2023-10-23T15:26:05.400Z,97905.96
2023-10-23T15:28:37.166Z,97909.44
2023-10-23T15:31:06.503Z,97910.92
2023-10-23T15:33:36.984Z,97909.74
2023-10-23T15:36:06.106Z,97910.88
2023-10-23T15:38:35.520Z,97912.66
2023-10-23T15:41:10.507Z,97915.60
2023-10-23T15:43:39.275Z,97916.63
2023-10-23T15:46:14.713Z,97918.59
2023-10-23T15:48:43.513Z,97914.39
2023-10-23T15:51:12.105Z,97915.08
2023-10-23T15:53:40.256Z,97915.98
2023-10-23T15:56:09.050Z,97919.23
2023-10-23T15:58:37.739Z,97916.17
2023-10-23T16:01:05.924Z,97913.86
2023-10-23T16:03:35.594Z,97912.60
2023-10-23T16:06:05.382Z,97922.39
2023-10-23T16:08:33.439Z,97929.04
2023-10-23T16:11:01.624Z,97939.12
2023-10-23T16:13:38.219Z,97942.07
2023-10-23T16:16:14.286Z,97940.62
2023-10-23T16:18:45.977Z,97946.62
2023-10-23T16:21:15.417Z,97947.33
2023-10-23T16:23:44.081Z,97948.91
2023-10-23T16:26:12.211Z,97948.95
2023-10-23T16:28:40.498Z,97948.65
2023-10-23T16:31:14.076Z,97952.87
2023-10-23T16:33:42.619Z,97953.86
2023-10-23T16:36:10.782Z,97950.92
2023-10-23T16:38:38.863Z,97948.70
2023-10-23T16:41:06.994Z,97951.91
2023-10-23T16:43:40.981Z,97950.28
2023-10-23T16:46:12.595Z,97948.33
2023-10-23T16:48:45.627Z,97953.31
2023-10-23T16:51:13.790Z,97956.70
2023-10-23T16:53:42.187Z,97954.67
2023-10-23T16:56:10.195Z,97952.63
2023-10-23T16:58:38.325Z,97952.16
2023-10-23T17:01:09.835Z,97950.73
2023-10-23T17:03:42.017Z,97956.64
2023-10-23T17:06:10.449Z,97953.92
2023-10-23T17:08:38.567Z,97955.80
2023-10-23T17:11:07.464Z,97951.98
2023-10-23T17:13:35.800Z,97952.16
2023-10-23T17:16:07.213Z,97953.39
2023-10-23T17:18:35.650Z,97948.60
2023-10-23T17:21:03.940Z,97946.35
2023-10-23T17:23:32.328Z,97944.00
2023-10-23T17:26:00.763Z,97941.98
2023-10-23T17:28:28.986Z,97943.04
2023-10-23T17:30:58.023Z,97942.42
2023-10-23T17:33:26.862Z,97943.51
2023-10-23T17:35:57.034Z,97941.02
2023-10-23T17:38:25.580Z,97938.90
2023-10-23T17:40:54.144Z,97947.33
2023-10-23T17:43:22.316Z,97951.95
2023-10-23T17:45:50.485Z,97951.48
2023-10-23T17:48:18.459Z,97953.48
2023-10-23T17:50:47.071Z,97953.70
2023-10-23T17:53:15.107Z,97954.01
2023-10-23T17:55:43.335Z,97954.33
2023-10-23T17:58:12.246Z,97952.45
2023-10-23T18:00:41.234Z,97953.21
2023-10-23T18:03:09.575Z,97954.69
2023-10-23T18:05:40.281Z,97958.90
2023-10-23T18:08:08.338Z,97956.52
2023-10-23T18:10:38.937Z,97959.95
2023-10-23T18:13:07.361Z,97964.12
2023-10-23T18:15:35.482Z,97968.42
2023-10-23T18:18:03.648Z,97973.13
2023-10-23T18:20:31.702Z,97971.13
2023-10-23T18:23:00.542Z,97972.02
2023-10-23T18:25:28.727Z,97969.73
2023-10-23T18:27:56.996Z,97973.27
2023-10-23T18:30:30.768Z,97970.67
2023-10-23T18:32:59.541Z,97966.54
2023-10-23T18:35:28.900Z,97969.92
2023-10-23T18:37:57.326Z,97968.08
2023-10-23T18:40:27.617Z,97970.05
2023-10-23T18:43:03.759Z,97967.10
2023-10-23T18:45:32.026Z,97965.88
2023-10-23T18:48:03.252Z,97967.41
2023-10-23T18:50:31.633Z,97968.70
2023-10-23T18:53:04.244Z,97968.39
2023-10-23T18:55:32.270Z,97973.05
2023-10-23T18:58:01.231Z,97973.80
2023-10-23T19:00:29.769Z,97970.75
2023-10-23T19:02:57.995Z,97972.42
2023-10-23T19:05:26.313Z,97972.27
2023-10-23T19:07:54.382Z,97972.37
2023-10-23T19:10:22.633Z,97971.55
2023-10-23T19:12:50.629Z,97966.41
2023-10-23T19:15:18.740Z,97965.00
2023-10-23T19:17:46.976Z,97969.61
2023-10-23T19:20:15.277Z,97972.14
2023-10-23T19:22:43.303Z,97975.76
2023-10-23T19:25:11.477Z,97980.51
2023-10-23T19:27:40.686Z,97982.35
2023-10-23T19:30:13.550Z,97983.11
2023-10-23T19:32:42.312Z,97984.93
2023-10-23T19:35:12.808Z,97986.34
2023-10-23T19:37:43.221Z,97990.87
2023-10-23T19:40:12.663Z,97988.64
2023-10-23T19:42:43.735Z,97986.13
2023-10-23T19:45:12.037Z,97984.86
2023-10-23T19:48:00.193Z,97982.60
2023-10-23T19:50:46.949Z,97983.68
2023-10-23T19:53:41.483Z,97984.92
2023-10-23T19:56:31.881Z,97984.20
2023-10-23T19:59:01.134Z,97977.59
2023-10-23T20:01:29.761Z,97977.70
2023-10-23T20:03:57.930Z,97980.44
2023-10-23T20:06:26.697Z,97985.46
2023-10-23T20:08:54.840Z,97988.55
2023-10-23T20:11:22.987Z,97986.11
2023-10-23T20:13:51.180Z,97984.86
2023-10-23T20:16:19.360Z,97983.79
2023-10-23T20:18:47.737Z,97985.17
2023-10-23T20:21:16.451Z,97985.17
2023-10-23T20:23:44.521Z,97986.35
2023-10-23T20:26:13.215Z,97986.04
2023-10-23T20:28:41.305Z,97985.83
2023-10-23T20:31:23.225Z,97983.02
2023-10-23T20:33:51.425Z,97981.09
2023-10-23T20:36:22.383Z,97986.50
2023-10-23T20:38:50.382Z,97981.63
2023-10-23T20:41:19.602Z,97983.48
2023-10-23T20:43:49.677Z,97981.91
2023-10-23T20:46:18.092Z,97973.95
2023-10-23T20:48:46.165Z,97971.92
2023-10-23T20:51:15.015Z,97964.27
2023-10-23T20:53:43.632Z,97960.34
2023-10-23T20:56:11.697Z,97957.36
2023-10-23T20:58:39.970Z,97955.55
2023-10-23T21:01:08.586Z,97951.18
2023-10-23T21:03:37.208Z,97947.59
2023-10-23T21:06:06.272Z,97944.90
2023-10-23T21:08:37.952Z,97944.09
2023-10-23T21:11:07.059Z,97947.55
2023-10-23T21:13:35.787Z,97944.16
2023-10-23T21:16:04.916Z,97947.79
2023-10-23T21:18:33.357Z,97948.37
2023-10-23T21:21:01.490Z,97951.29
2023-10-23T21:23:30.309Z,97955.38
2023-10-23T21:26:01.503Z,97959.30
2023-10-23T21:28:29.779Z,97958.67
2023-10-23T21:30:57.922Z,97957.56
2023-10-23T21:33:26.065Z,97954.38
2023-10-23T21:35:54.196Z,97952.88
2023-10-23T21:38:22.284Z,97947.63
2023-10-23T21:40:50.459Z,97948.38
2023-10-23T21:43:19.701Z,97949.63
2023-10-23T21:45:49.050Z,97945.04
2023-10-23T21:48:19.922Z,97944.97
2023-10-23T21:50:48.450Z,97944.66
2023-10-23T21:53:16.695Z,97940.14
2023-10-23T21:55:44.953Z,97937.48
2023-10-23T21:58:13.109Z,97936.38
2023-10-23T22:00:41.977Z,97939.41
2023-10-23T22:03:10.305Z,97939.77
2023-10-23T22:05:39.030Z,97941.16
2023-10-23T22:08:07.173Z,97943.86
2023-10-23T22:10:35.391Z,97941.66
2023-10-23T22:13:04.157Z,97938.27
2023-10-23T22:15:32.291Z,97941.45
2023-10-23T22:18:00.531Z,97941.92
2023-10-23T22:20:28.584Z,97939.60
2023-10-23T22:22:56.819Z,97944.51
2023-10-23T22:25:24.880Z,97937.67
2023-10-23T22:27:52.926Z,97929.08
2023-10-23T22:30:20.961Z,97927.29
2023-10-23T22:33:00.189Z,97925.82
2023-10-23T22:35:37.082Z,97922.11
2023-10-23T22:38:09.936Z,97917.12
2023-10-23T22:40:38.244Z,97910.55
2023-10-23T22:43:06.385Z,97909.10
2023-10-23T22:45:39.015Z,97915.80
2023-10-23T22:48:15.522Z,97907.69
2023-10-23T22:50:43.764Z,97902.96
2023-10-23T22:53:12.007Z,97903.58
2023-10-23T22:55:40.380Z,97899.40
2023-10-23T22:58:11.035Z,97898.45
2023-10-23T23:00:39.366Z,97900.80
2023-10-23T23:03:07.553Z,97900.71
2023-10-23T23:05:36.681Z,97896.95
2023-10-23T23:08:04.852Z,97898.39
2023-10-23T23:10:33.040Z,97900.98
2023-10-23T23:13:01.192Z,97905.98
2023-10-23T23:15:29.362Z,97909.43
2023-10-23T23:17:59.642Z,97914.92
2023-10-23T23:20:30.567Z,97918.10
2023-10-23T23:22:58.639Z,97919.14
2023-10-23T23:25:26.601Z,97914.73
2023-10-23T23:27:54.638Z,97914.40
2023-10-23T23:30:22.621Z,97916.05
2023-10-23T23:32:50.719Z,97918.73
2023-10-23T23:35:18.732Z,97915.52
2023-10-23T23:37:46.871Z,97921.18
2023-10-23T23:40:14.914Z,97921.71
2023-10-23T23:42:42.958Z,97919.80
2023-10-23T23:45:11.064Z,97916.89
2023-10-23T23:47:39.116Z,97905.60
2023-10-23T23:50:07.373Z,97904.27
2023-10-23T23:52:35.737Z,97904.43
2023-10-23T23:55:03.929Z,97900.60
2023-10-23T23:57:33.349Z,97895.66
